Time;durP1;ratioP1;P1;durP2;ratioP2;P2;SDS_P1;SDS_P2;PMS_P1;PMS_P2;Temp;Humidity;BMP_temperature;BMP_pressure;BME280_temperature;BME280_humidity;BME280_pressure;Samples;Min_cycle;Max_cycle;Signal;HPM_P1;HPM_P2
2023/10/05 00:01:12;;;;;;;;;;;24.20;74.80;;;;;;5005577;28;42914;-80
2023/10/05 00:03:43;;;;;;;;;;;24.30;77.10;;;;;;5023315;28;43375;-78
2023/10/05 00:06:16;;;;;;;;;;;24.20;76.80;;;;;;5023704;28;43102;-79
2023/10/05 00:08:47;;;;;;;;;;;24.10;76.90;;;;;;5023496;28;42961;-80
2023/10/05 00:11:23;;;;;;;;;;;24.20;74.80;;;;;;5024265;28;43001;-80
2023/10/05 00:13:59;;;;;;;;;;;24.10;77.40;;;;;;5023604;28;43320;-80
2023/10/05 00:16:36;;;;;;;;;;;24.10;77.30;;;;;;5023872;28;42841;-79
2023/10/05 00:19:04;;;;;;;;;;;24.10;77.30;;;;;;5023001;28;43387;-79
2023/10/05 00:21:35;;;;;;;;;;;24.10;77.50;;;;;;5023260;28;43076;-79
2023/10/05 00:24:02;;;;;;;;;;;24.00;77.50;;;;;;5022216;28;43491;-79
2023/10/05 00:26:29;;;;;;;;;;;23.80;77.80;;;;;;5023317;28;43024;-80
2023/10/05 00:29:05;;;;;;;;;;;24.00;78.00;;;;;;5022868;28;43067;-79
2023/10/05 00:31:32;;;;;;;;;;;23.80;76.00;;;;;;5021722;28;42878;-79
2023/10/05 00:33:58;;;;;;;;;;;24.00;77.60;;;;;;5020289;28;43928;-78
2023/10/05 00:36:24;;;;;;;;;;;24.00;77.50;;;;;;5007301;28;42860;-80
2023/10/05 00:38:50;;;;;;;;;;;23.40;77.40;;;;;;5009350;28;43824;-80
2023/10/05 00:41:16;;;;;;;;;;;24.00;78.00;;;;;;5026289;28;43025;-80
2023/10/05 00:43:46;;;;;;;;;;;23.90;78.00;;;;;;5025855;28;42977;-79
2023/10/05 00:46:11;;;;;;;;;;;23.80;77.20;;;;;;5026291;28;43098;-79
2023/10/05 00:48:41;;;;;;;;;;;24.00;77.10;;;;;;5025660;28;43540;-79
2023/10/05 00:51:23;;;;;;;;;;;24.00;77.00;;;;;;5003801;28;42877;-79
2023/10/05 00:53:49;;;;;;;;;;;23.90;77.20;;;;;;5026038;28;44413;-78
2023/10/05 00:56:15;;;;;;;;;;;24.10;77.80;;;;;;5025693;28;42926;-80
2023/10/05 00:58:44;;;;;;;;;;;24.00;77.70;;;;;;5025673;28;42909;-79
2023/10/05 01:01:49;;;;;;;;;;;23.80;76.50;;;;;;5024564;28;43022;-79
2023/10/05 01:04:23;;;;;;;;;;;23.80;77.40;;;;;;5024960;28;43478;-79
2023/10/05 01:06:55;;;;;;;;;;;23.90;75.90;;;;;;5026169;28;42952;-79
2023/10/05 01:09:54;;;;;;;;;;;23.90;76.90;;;;;;5026025;28;43842;-79
2023/10/05 01:14:39;;;;;;;;;;;23.90;76.20;;;;;;5026404;28;42956;-79
2023/10/05 01:17:05;;;;;;;;;;;23.90;74.50;;;;;;5026321;28;42912;-80
2023/10/05 01:19:31;;;;;;;;;;;23.80;76.30;;;;;;5026138;28;43161;-80
2023/10/05 01:21:57;;;;;;;;;;;23.80;76.30;;;;;;5025377;28;42941;-79
2023/10/05 01:24:25;;;;;;;;;;;23.80;76.60;;;;;;5024017;28;43552;-79
2023/10/05 01:26:50;;;;;;;;;;;23.90;77.00;;;;;;5024047;28;43958;-79
2023/10/05 01:29:16;;;;;;;;;;;23.90;77.10;;;;;;5025237;28;44154;-79
2023/10/05 01:31:41;;;;;;;;;;;23.90;77.00;;;;;;5026818;28;42845;-79
2023/10/05 01:34:08;;;;;;;;;;;23.90;77.10;;;;;;5025748;28;43647;-80
2023/10/05 01:36:34;;;;;;;;;;;23.80;77.00;;;;;;5026206;28;42983;-80
2023/10/05 01:39:07;;;;;;;;;;;23.80;76.80;;;;;;5025472;28;43056;-79
2023/10/05 01:41:33;;;;;;;;;;;23.90;76.60;;;;;;5026384;28;42933;-80
2023/10/05 01:44:00;;;;;;;;;;;23.70;76.90;;;;;;5042506;28;42807;-79
2023/10/05 01:46:26;;;;;;;;;;;23.80;76.60;;;;;;5041983;28;42860;-80
2023/10/05 01:48:56;;;;;;;;;;;23.90;76.20;;;;;;5031170;28;43546;-80
2023/10/05 01:51:25;;;;;;;;;;;23.80;74.60;;;;;;5026980;28;42937;-78
2023/10/05 01:53:59;;;;;;;;;;;23.90;74.50;;;;;;5040505;28;42970;-80
2023/10/05 01:56:24;;;;;;;;;;;23.90;74.30;;;;;;5024696;28;42976;-79
2023/10/05 01:58:51;;;;;;;;;;;24.00;76.20;;;;;;5025428;28;44499;-80
2023/10/05 02:01:18;;;;;;;;;;;23.90;75.70;;;;;;5006964;28;42981;-78
2023/10/05 02:03:44;;;;;;;;;;;23.80;75.90;;;;;;5024764;28;43000;-80
2023/10/05 02:06:15;;;;;;;;;;;23.80;76.20;;;;;;5025659;28;42909;-79
2023/10/05 02:08:41;;;;;;;;;;;23.70;74.80;;;;;;5025989;28;43049;-79
2023/10/05 02:11:09;;;;;;;;;;;23.60;76.20;;;;;;5025381;28;42940;-80
2023/10/05 02:13:35;;;;;;;;;;;23.80;76.50;;;;;;5025003;28;43508;-79
2023/10/05 02:16:02;;;;;;;;;;;23.80;76.30;;;;;;5025063;28;42960;-80
2023/10/05 02:18:30;;;;;;;;;;;23.70;76.20;;;;;;5025468;28;43216;-79
2023/10/05 02:21:42;;;;;;;;;;;23.70;76.30;;;;;;5024071;28;43023;-78
2023/10/05 02:23:42;;;;;;;;;;;23.60;75.80;;;;;;5016815;28;42965;-79
2023/10/05 02:26:23;;;;;;;;;;;23.60;76.30;;;;;;5024668;28;42861;-81
2023/10/05 02:28:48;;;;;;;;;;;23.70;75.10;;;;;;5023987;28;44359;-80
2023/10/05 02:31:15;;;;;;;;;;;23.30;75.90;;;;;;5024481;28;42853;-80
2023/10/05 02:33:43;;;;;;;;;;;23.50;75.50;;;;;;5024809;28;43079;-80
2023/10/05 02:36:18;;;;;;;;;;;23.30;75.60;;;;;;5024713;28;43067;-79
2023/10/05 02:38:53;;;;;;;;;;;23.60;75.90;;;;;;5024396;28;43773;-79
2023/10/05 02:41:26;;;;;;;;;;;23.70;74.00;;;;;;5023883;28;43240;-80
2023/10/05 02:43:52;;;;;;;;;;;23.60;75.30;;;;;;5024618;28;43606;-79
2023/10/05 02:46:20;;;;;;;;;;;23.40;75.70;;;;;;5024206;28;43112;-80
2023/10/05 02:48:46;;;;;;;;;;;23.60;75.80;;;;;;5024193;28;42965;-79
2023/10/05 02:51:13;;;;;;;;;;;23.50;76.10;;;;;;5024669;28;43087;-79
2023/10/05 02:53:44;;;;;;;;;;;23.40;75.60;;;;;;5024283;28;42929;-80
2023/10/05 02:56:28;;;;;;;;;;;23.60;75.50;;;;;;5023915;28;43000;-79
2023/10/05 02:58:55;;;;;;;;;;;23.60;73.30;;;;;;5023932;28;42929;-78
2023/10/05 03:01:21;;;;;;;;;;;23.60;75.00;;;;;;5023418;28;42940;-78
2023/10/05 03:03:47;;;;;;;;;;;23.50;75.50;;;;;;5024714;28;43820;-78
2023/10/05 03:06:15;;;;;;;;;;;23.10;74.50;;;;;;5024270;28;43233;-79
2023/10/05 03:08:41;;;;;;;;;;;23.40;75.70;;;;;;5024126;28;43497;-79
2023/10/05 03:11:09;;;;;;;;;;;23.50;74.90;;;;;;5023761;28;42919;-79
2023/10/05 03:13:41;;;;;;;;;;;23.60;73.70;;;;;;5024395;28;43678;-79
2023/10/05 03:16:10;;;;;;;;;;;23.40;75.50;;;;;;5023919;28;42865;-79
2023/10/05 03:18:43;;;;;;;;;;;23.60;75.60;;;;;;5024113;28;42974;-81
2023/10/05 03:21:12;;;;;;;;;;;23.60;73.00;;;;;;5024036;28;43032;-80
2023/10/05 03:23:39;;;;;;;;;;;23.20;74.80;;;;;;5024099;28;43577;-79
2023/10/05 03:26:06;;;;;;;;;;;23.80;75.00;;;;;;5024023;28;43467;-79
2023/10/05 03:28:34;;;;;;;;;;;23.80;73.80;;;;;;5023228;28;42906;-80
2023/10/05 03:31:06;;;;;;;;;;;23.70;73.70;;;;;;5023743;28;42905;-80
2023/10/05 03:33:33;;;;;;;;;;;23.80;74.30;;;;;;5019078;28;43739;-80
2023/10/05 03:36:03;;;;;;;;;;;24.10;74.50;;;;;;5015269;28;42936;-79
2023/10/05 03:38:29;;;;;;;;;;;23.90;74.00;;;;;;5024359;28;44737;-79
2023/10/05 03:40:59;;;;;;;;;;;23.70;74.20;;;;;;5023754;28;42795;-80
2023/10/05 03:43:25;;;;;;;;;;;23.60;74.30;;;;;;5021930;28;43027;-80
2023/10/05 03:45:50;;;;;;;;;;;23.60;74.50;;;;;;5022107;28;43115;-80
2023/10/05 03:48:16;;;;;;;;;;;23.50;74.30;;;;;;5005365;28;44410;-78
2023/10/05 03:50:41;;;;;;;;;;;23.40;73.70;;;;;;5023220;28;42975;-80
2023/10/05 03:53:15;;;;;;;;;;;22.40;73.10;;;;;;5024008;28;42934;-80
2023/10/05 03:55:41;;;;;;;;;;;23.30;73.80;;;;;;5023864;28;42992;-79
2023/10/05 03:58:07;;;;;;;;;;;23.50;74.40;;;;;;5023997;28;43458;-79
2023/10/05 04:00:35;;;;;;;;;;;23.60;74.30;;;;;;5023464;28;43044;-79
2023/10/05 04:03:02;;;;;;;;;;;23.60;74.10;;;;;;5024159;28;42845;-80
2023/10/05 04:05:28;;;;;;;;;;;23.50;73.60;;;;;;5022671;28;43055;-79
2023/10/05 04:08:00;;;;;;;;;;;23.50;74.00;;;;;;5024436;28;43294;-78
2023/10/05 04:10:45;;;;;;;;;;;23.30;73.70;;;;;;5027201;28;43074;-79
2023/10/05 04:13:12;;;;;;;;;;;23.40;73.20;;;;;;5027483;28;44805;-80
2023/10/05 04:15:41;;;;;;;;;;;23.30;74.00;;;;;;5026316;28;42941;-79
2023/10/05 04:18:11;;;;;;;;;;;23.20;71.70;;;;;;5026478;28;42941;-79
2023/10/05 04:20:36;;;;;;;;;;;23.30;73.50;;;;;;5024519;28;42838;-79
2023/10/05 04:23:02;;;;;;;;;;;23.50;73.70;;;;;;5027195;28;43545;-79
2023/10/05 04:25:28;;;;;;;;;;;23.50;73.30;;;;;;5028309;28;43054;-74
2023/10/05 04:27:54;;;;;;;;;;;23.60;73.40;;;;;;5046166;28;42983;-78
2023/10/05 04:30:23;;;;;;;;;;;23.50;73.50;;;;;;5025501;28;42425;-78
2023/10/05 04:32:48;;;;;;;;;;;23.30;73.30;;;;;;5047029;28;42858;-78
2023/10/05 04:35:22;;;;;;;;;;;23.60;73.40;;;;;;5032385;28;42852;-78
2023/10/05 04:37:49;;;;;;;;;;;23.50;73.20;;;;;;5030768;28;44540;-78
2023/10/05 04:40:17;;;;;;;;;;;23.40;73.50;;;;;;5026598;28;42925;-79
2023/10/05 04:42:42;;;;;;;;;;;23.60;73.00;;;;;;5026383;28;43470;-78
2023/10/05 04:45:12;;;;;;;;;;;24.20;73.30;;;;;;5026738;28;43663;-78
2023/10/05 04:47:38;;;;;;;;;;;23.70;72.90;;;;;;5007074;28;43428;-79
2023/10/05 04:50:06;;;;;;;;;;;23.40;73.10;;;;;;5009442;28;42953;-78
2023/10/05 04:52:33;;;;;;;;;;;23.40;72.20;;;;;;5022892;28;42792;-79
2023/10/05 04:55:14;;;;;;;;;;;23.50;72.90;;;;;;5023999;28;42964;-78
2023/10/05 04:57:49;;;;;;;;;;;23.30;72.20;;;;;;5026393;28;43124;-78
2023/10/05 05:03:56;;;;;;;;;;;23.30;73.20;;;;;;5025194;28;42932;-78
2023/10/05 05:08:25;;;;;;;;;;;23.30;71.30;;;;;;5013074;28;43564;-77
2023/10/05 05:10:50;;;;;;;;;;;23.30;72.50;;;;;;5024579;28;43045;-78
2023/10/05 05:13:16;;;;;;;;;;;23.10;72.80;;;;;;5025758;28;43386;-79
2023/10/05 05:15:42;;;;;;;;;;;23.30;73.00;;;;;;5028837;28;42972;-77
2023/10/05 05:18:14;;;;;;;;;;;23.20;72.40;;;;;;5036289;28;42962;-78
2023/10/05 05:20:44;;;;;;;;;;;23.40;71.00;;;;;;5032189;28;42884;-78
2023/10/05 05:23:11;;;;;;;;;;;23.30;70.70;;;;;;5034580;28;44344;-77
2023/10/05 05:25:37;;;;;;;;;;;23.30;72.80;;;;;;5033444;28;42929;-78
2023/10/05 05:28:05;;;;;;;;;;;23.10;72.90;;;;;;5032972;28;42959;-79
2023/10/05 05:30:36;;;;;;;;;;;23.20;72.70;;;;;;5030682;28;43343;-77
2023/10/05 05:33:06;;;;;;;;;;;23.70;70.90;;;;;;5032463;28;43994;-78
2023/10/05 05:35:32;;;;;;;;;;;23.40;72.20;;;;;;5014285;28;43039;-76
2023/10/05 05:37:57;;;;;;;;;;;23.30;72.00;;;;;;5024804;28;43236;-77
2023/10/05 05:40:23;;;;;;;;;;;23.20;72.00;;;;;;5023249;28;42930;-77
2023/10/05 05:42:54;;;;;;;;;;;23.30;73.00;;;;;;5022591;28;43080;-78
2023/10/05 05:45:19;;;;;;;;;;;23.20;73.20;;;;;;5024622;28;43092;-79
2023/10/05 05:47:45;;;;;;;;;;;23.30;73.70;;;;;;5024350;28;43000;-79
2023/10/05 05:50:23;;;;;;;;;;;23.20;73.40;;;;;;5024341;28;43042;-78
2023/10/05 05:52:50;;;;;;;;;;;23.40;73.50;;;;;;5024282;28;43035;-77
2023/10/05 05:55:20;;;;;;;;;;;23.40;72.80;;;;;;5024880;28;42953;-78
2023/10/05 05:57:46;;;;;;;;;;;23.50;71.20;;;;;;5024186;28;42953;-80
2023/10/05 06:00:12;;;;;;;;;;;23.60;71.90;;;;;;5024121;28;43136;-81
2023/10/05 06:02:41;;;;;;;;;;;23.40;70.80;;;;;;5023540;28;43026;-80
2023/10/05 06:05:08;;;;;;;;;;;23.40;71.60;;;;;;5004301;28;44977;-82
2023/10/05 06:07:42;;;;;;;;;;;23.50;71.80;;;;;;5020714;28;42965;-81
2023/10/05 06:10:12;;;;;;;;;;;23.60;70.20;;;;;;5023223;28;43006;-82
2023/10/05 06:12:41;;;;;;;;;;;23.20;72.20;;;;;;5022649;28;43042;-80
2023/10/05 06:15:07;;;;;;;;;;;23.20;70.50;;;;;;5022666;28;43020;-81
2023/10/05 06:17:36;;;;;;;;;;;23.10;72.50;;;;;;5023607;28;42983;-82
2023/10/05 06:20:14;;;;;;;;;;;23.00;70.70;;;;;;5023743;28;43011;-80
2023/10/05 06:22:44;;;;;;;;;;;23.20;70.70;;;;;;5022296;28;42964;-82
2023/10/05 06:25:16;;;;;;;;;;;23.10;70.10;;;;;;5023978;28;43124;-82
2023/10/05 06:27:45;;;;;;;;;;;23.20;70.60;;;;;;5023994;28;42983;-82
2023/10/05 06:30:11;;;;;;;;;;;23.20;71.60;;;;;;5022435;28;43132;-81
2023/10/05 06:32:37;;;;;;;;;;;23.00;73.40;;;;;;5020592;28;42884;-80
2023/10/05 06:35:03;;;;;;;;;;;23.10;73.10;;;;;;5021097;28;43002;-80
2023/10/05 06:37:29;;;;;;;;;;;23.20;73.00;;;;;;5022379;28;43674;-80
2023/10/05 06:39:55;;;;;;;;;;;23.10;73.30;;;;;;5018265;28;42957;-82
2023/10/05 06:42:21;;;;;;;;;;;23.00;73.30;;;;;;5021983;28;43001;-81
2023/10/05 06:44:48;;;;;;;;;;;23.10;73.50;;;;;;5026335;28;42901;-82
2023/10/05 06:47:35;;;;;;;;;;;23.10;73.50;;;;;;5022945;28;43551;-80
2023/10/05 06:50:00;;;;;;;;;;;23.10;73.00;;;;;;5021795;28;43213;-81
2023/10/05 06:52:25;;;;;;;;;;;23.20;73.60;;;;;;5019698;28;43189;-80
2023/10/05 06:54:51;;;;;;;;;;;23.10;73.30;;;;;;5020482;28;43079;-81
2023/10/05 06:57:17;;;;;;;;;;;23.20;73.00;;;;;;5020906;28;44138;-81
2023/10/05 06:59:42;;;;;;;;;;;23.30;72.70;;;;;;5026184;28;42944;-81
2023/10/05 07:02:08;;;;;;;;;;;23.40;73.20;;;;;;5007337;28;44391;-81
2023/10/05 07:04:34;;;;;;;;;;;23.30;73.10;;;;;;5036909;28;43028;-80
2023/10/05 07:07:00;;;;;;;;;;;23.40;72.30;;;;;;5054565;28;44492;-81
2023/10/05 07:09:26;;;;;;;;;;;23.40;72.60;;;;;;5033985;28;43038;-80
2023/10/05 07:11:52;;;;;;;;;;;23.40;71.90;;;;;;5024343;28;43525;-81
2023/10/05 07:14:19;;;;;;;;;;;23.40;72.40;;;;;;5024588;28;42778;-82
2023/10/05 07:16:45;;;;;;;;;;;23.40;72.00;;;;;;5030599;28;43646;-79
2023/10/05 07:19:11;;;;;;;;;;;23.60;72.00;;;;;;5029963;28;43549;-79
2023/10/05 07:21:37;;;;;;;;;;;23.50;71.70;;;;;;5028833;28;43146;-79
2023/10/05 07:24:04;;;;;;;;;;;23.60;71.90;;;;;;5031632;28;42933;-79
2023/10/05 07:26:29;;;;;;;;;;;23.50;71.30;;;;;;5013063;28;43262;-78
2023/10/05 07:28:55;;;;;;;;;;;23.60;71.70;;;;;;4944306;28;1863868;-79
2023/10/05 07:31:22;;;;;;;;;;;23.20;71.30;;;;;;5032246;28;43147;-79
2023/10/05 07:33:48;;;;;;;;;;;23.50;71.30;;;;;;5028331;28;43136;-79
2023/10/05 07:36:14;;;;;;;;;;;23.50;71.80;;;;;;5030839;28;44723;-79
2023/10/05 07:38:40;;;;;;;;;;;23.80;71.70;;;;;;5032597;28;42936;-79
2023/10/05 07:41:07;;;;;;;;;;;23.40;72.10;;;;;;5022938;28;43492;-79
2023/10/05 07:43:34;;;;;;;;;;;23.50;71.20;;;;;;5023903;28;42951;-79
2023/10/05 07:46:00;;;;;;;;;;;23.60;71.00;;;;;;5026586;28;43321;-79
2023/10/05 07:48:26;;;;;;;;;;;23.80;71.20;;;;;;5024941;28;42956;-79
2023/10/05 07:50:51;;;;;;;;;;;23.60;70.70;;;;;;5026371;28;42993;-79
2023/10/05 07:53:17;;;;;;;;;;;23.40;69.50;;;;;;5026983;28;42963;-79
2023/10/05 07:55:43;;;;;;;;;;;23.50;70.00;;;;;;5025505;28;43029;-79
2023/10/05 07:58:08;;;;;;;;;;;23.70;69.60;;;;;;5027018;28;43267;-79
2023/10/05 08:00:34;;;;;;;;;;;24.40;70.30;;;;;;5026165;28;43072;-79
2023/10/05 08:03:00;;;;;;;;;;;23.70;69.70;;;;;;5031174;28;43236;-80
2023/10/05 08:05:26;;;;;;;;;;;23.60;69.10;;;;;;5026782;28;42907;-79
2023/10/05 08:07:51;;;;;;;;;;;23.80;69.60;;;;;;5027212;28;42935;-79
2023/10/05 08:10:18;;;;;;;;;;;23.60;69.10;;;;;;5039346;28;44463;-80
2023/10/05 08:12:50;;;;;;;;;;;23.60;68.80;;;;;;5035810;28;42936;-79
2023/10/05 08:15:19;;;;;;;;;;;23.60;69.00;;;;;;5026386;28;43563;-80
2023/10/05 08:17:46;;;;;;;;;;;23.50;66.30;;;;;;5026014;28;43144;-79
2023/10/05 08:20:11;;;;;;;;;;;23.50;69.40;;;;;;5024808;28;44524;-79
2023/10/05 08:22:37;;;;;;;;;;;23.70;69.30;;;;;;5025391;28;43100;-78
2023/10/05 08:25:10;;;;;;;;;;;23.60;68.90;;;;;;5025152;28;43026;-79
2023/10/05 08:27:37;;;;;;;;;;;23.70;68.80;;;;;;5028024;28;43016;-79
2023/10/05 08:30:03;;;;;;;;;;;23.50;69.60;;;;;;5024497;28;43012;-79
2023/10/05 08:32:32;;;;;;;;;;;23.70;69.10;;;;;;5031119;28;43138;-79
2023/10/05 08:34:58;;;;;;;;;;;23.60;69.40;;;;;;5033673;28;43098;-79
2023/10/05 08:37:23;;;;;;;;;;;23.70;69.40;;;;;;5030357;28;43166;-79
2023/10/05 08:39:51;;;;;;;;;;;23.70;69.80;;;;;;5028665;28;44074;-79
2023/10/05 08:42:16;;;;;;;;;;;23.90;69.90;;;;;;5029030;28;43289;-79
2023/10/05 08:44:43;;;;;;;;;;;23.60;69.70;;;;;;5036724;28;42921;-79
2023/10/05 08:47:12;;;;;;;;;;;23.70;69.60;;;;;;5051082;28;43142;-79
2023/10/05 08:49:38;;;;;;;;;;;23.70;69.80;;;;;;5034570;28;43011;-79
2023/10/05 08:52:19;;;;;;;;;;;23.80;69.10;;;;;;5033752;28;42908;-78
2023/10/05 08:54:46;;;;;;;;;;;23.70;69.00;;;;;;5020815;28;44788;-79
2023/10/05 08:57:12;;;;;;;;;;;23.60;68.80;;;;;;5028740;28;43079;-79
2023/10/05 08:59:39;;;;;;;;;;;23.70;68.60;;;;;;5028875;28;43865;-79
2023/10/05 09:02:07;;;;;;;;;;;23.50;68.50;;;;;;5029958;28;43087;-79
2023/10/05 09:04:47;;;;;;;;;;;23.60;68.30;;;;;;5022696;28;43443;-78
2023/10/05 09:07:35;;;;;;;;;;;23.80;67.30;;;;;;5016511;28;43160;-79
2023/10/05 09:10:05;;;;;;;;;;;23.70;65.00;;;;;;5035907;28;43609;-79
2023/10/05 09:12:46;;;;;;;;;;;24.00;65.40;;;;;;5013329;28;42963;-79
2023/10/05 09:15:28;;;;;;;;;;;23.60;67.00;;;;;;5027589;28;43052;-78
2023/10/05 09:20:31;;;;;;;;;;;23.70;65.90;;;;;;5029785;28;43597;-79
2023/10/05 09:22:57;;;;;;;;;;;23.80;67.50;;;;;;5027637;28;43107;-79
2023/10/05 09:25:26;;;;;;;;;;;23.80;67.80;;;;;;5025154;28;42904;-79
2023/10/05 09:27:54;;;;;;;;;;;23.60;67.10;;;;;;5024611;28;43306;-79
2023/10/05 09:30:21;;;;;;;;;;;23.50;67.60;;;;;;5024220;28;43027;-79
2023/10/05 09:32:48;;;;;;;;;;;23.90;67.50;;;;;;5022304;28;42968;-79
2023/10/05 09:35:40;;;;;;;;;;;23.80;67.20;;;;;;5023380;28;44618;-79
2023/10/05 09:38:07;;;;;;;;;;;23.90;65.10;;;;;;5022318;28;43561;-81
2023/10/05 09:40:33;;;;;;;;;;;23.70;67.80;;;;;;5035459;28;43741;-79
2023/10/05 09:43:00;;;;;;;;;;;23.90;67.70;;;;;;5025082;28;43435;-79
2023/10/05 09:45:29;;;;;;;;;;;23.70;68.20;;;;;;5025229;28;43847;-79
2023/10/05 09:47:58;;;;;;;;;;;23.70;65.80;;;;;;5026447;28;42883;-79
2023/10/05 09:50:26;;;;;;;;;;;23.90;68.10;;;;;;5027166;28;43063;-80
2023/10/05 09:52:53;;;;;;;;;;;23.60;67.00;;;;;;5018569;28;43006;-79
2023/10/05 09:55:19;;;;;;;;;;;23.70;67.60;;;;;;5048343;28;44345;-79
2023/10/05 09:57:53;;;;;;;;;;;23.70;67.80;;;;;;5040659;28;42921;-79
2023/10/05 10:03:03;;;;;;;;;;;23.80;67.20;;;;;;5034959;28;42958;-79
2023/10/05 10:05:48;;;;;;;;;;;23.60;64.20;;;;;;5024281;28;42975;-79
2023/10/05 10:08:23;;;;;;;;;;;23.60;64.00;;;;;;5028981;28;42980;-79
2023/10/05 10:11:07;;;;;;;;;;;23.80;64.70;;;;;;5028173;28;44407;-79
2023/10/05 10:13:39;;;;;;;;;;;23.70;65.00;;;;;;5034076;28;43002;-79
2023/10/05 10:16:21;;;;;;;;;;;23.70;67.60;;;;;;5034932;28;43764;-79
2023/10/05 10:18:53;;;;;;;;;;;23.70;64.30;;;;;;5029780;28;43004;-79
2023/10/05 10:21:24;;;;;;;;;;;25.60;65.70;;;;;;5025199;28;43236;-79
2023/10/05 10:23:50;;;;;;;;;;;24.20;67.30;;;;;;5020497;28;43028;-82
2023/10/05 10:26:23;;;;;;;;;;;23.80;67.10;;;;;;5035628;28;42945;-81
2023/10/05 10:28:56;;;;;;;;;;;23.90;65.40;;;;;;5034709;28;43084;-81
2023/10/05 10:31:33;;;;;;;;;;;23.80;67.00;;;;;;5031875;28;44431;-81
2023/10/05 10:34:11;;;;;;;;;;;23.80;67.00;;;;;;5029523;28;42846;-83
2023/10/05 10:36:47;;;;;;;;;;;24.20;64.70;;;;;;5023248;28;43873;-81
2023/10/05 10:42:12;;;;;;;;;;;23.90;65.90;;;;;;5028285;28;44349;-81
2023/10/05 10:47:14;;;;;;;;;;;24.00;66.10;;;;;;5034663;28;43023;-80
2023/10/05 10:49:40;;;;;;;;;;;23.80;65.10;;;;;;5025718;28;43020;-81
2023/10/05 10:52:09;;;;;;;;;;;23.70;65.40;;;;;;5025772;28;44185;-80
2023/10/05 10:54:39;;;;;;;;;;;23.80;66.40;;;;;;5029412;28;44005;-80
2023/10/05 10:57:06;;;;;;;;;;;23.70;66.00;;;;;;5023051;28;44319;-81
2023/10/05 10:59:41;;;;;;;;;;;23.90;66.70;;;;;;5036689;28;43419;-80
2023/10/05 11:02:12;;;;;;;;;;;23.90;66.90;;;;;;5039975;28;42929;-80
2023/10/05 11:04:39;;;;;;;;;;;23.70;66.30;;;;;;5025270;28;42885;-80
2023/10/05 11:07:09;;;;;;;;;;;23.70;66.40;;;;;;5015634;28;42922;-80
2023/10/05 11:09:36;;;;;;;;;;;23.80;65.40;;;;;;5021354;28;43152;-80
2023/10/05 11:12:10;;;;;;;;;;;23.70;66.20;;;;;;5022995;28;44362;-81
2023/10/05 11:14:42;;;;;;;;;;;23.60;66.40;;;;;;5022589;28;42908;-80
2023/10/05 11:17:31;;;;;;;;;;;24.00;64.00;;;;;;5024175;28;43479;-80
2023/10/05 11:19:58;;;;;;;;;;;23.80;64.20;;;;;;5031636;28;43110;-80
2023/10/05 11:22:23;;;;;;;;;;;23.90;66.30;;;;;;5024041;28;42994;-80
2023/10/05 11:25:14;;;;;;;;;;;23.80;66.40;;;;;;5028247;28;42948;-80
2023/10/05 11:27:41;;;;;;;;;;;23.90;64.30;;;;;;5025541;28;44396;-80
2023/10/05 11:30:07;;;;;;;;;;;23.90;66.90;;;;;;5025709;28;42942;-80
2023/10/05 11:32:33;;;;;;;;;;;24.00;65.40;;;;;;5024101;28;43728;-80
2023/10/05 11:35:05;;;;;;;;;;;24.00;66.10;;;;;;5025138;28;42956;-80
2023/10/05 11:37:32;;;;;;;;;;;24.00;65.80;;;;;;5025323;28;43452;-80
2023/10/05 11:40:03;;;;;;;;;;;23.90;66.20;;;;;;5024542;28;42874;-80
2023/10/05 11:42:34;;;;;;;;;;;23.90;64.00;;;;;;5023462;28;43735;-80
2023/10/05 11:45:00;;;;;;;;;;;24.10;66.60;;;;;;5026250;28;42896;-80
2023/10/05 11:47:41;;;;;;;;;;;24.00;66.40;;;;;;5023450;28;43845;-80
2023/10/05 11:50:33;;;;;;;;;;;24.10;64.20;;;;;;5022162;28;42920;-81
2023/10/05 11:53:10;;;;;;;;;;;24.00;64.20;;;;;;5024755;28;42953;-80
2023/10/05 11:55:35;;;;;;;;;;;24.00;66.60;;;;;;5025194;28;42754;-81
2023/10/05 11:58:01;;;;;;;;;;;24.00;65.80;;;;;;5024162;28;42881;-80
2023/10/05 12:00:31;;;;;;;;;;;23.90;66.30;;;;;;5023420;28;42946;-80
2023/10/05 12:02:57;;;;;;;;;;;23.70;66.00;;;;;;5007508;28;44995;-80
2023/10/05 12:05:25;;;;;;;;;;;23.60;65.70;;;;;;5022398;28;43081;-80
2023/10/05 12:07:51;;;;;;;;;;;23.90;66.20;;;;;;5024515;28;43386;-80
2023/10/05 12:10:16;;;;;;;;;;;24.00;66.30;;;;;;5024675;28;42940;-80
2023/10/05 12:12:44;;;;;;;;;;;24.00;66.50;;;;;;5006792;28;43063;-80
2023/10/05 12:15:12;;;;;;;;;;;23.90;65.90;;;;;;5027248;28;43130;-79
2023/10/05 12:17:39;;;;;;;;;;;24.10;65.90;;;;;;5025957;28;44075;-80
2023/10/05 12:20:08;;;;;;;;;;;24.40;65.60;;;;;;5026782;28;43059;-80
2023/10/05 12:22:33;;;;;;;;;;;24.00;65.20;;;;;;5023961;28;43012;-80
2023/10/05 12:24:59;;;;;;;;;;;24.20;66.30;;;;;;5022320;28;42886;-84
2023/10/05 12:27:26;;;;;;;;;;;24.00;66.20;;;;;;5023503;28;43467;-81
2023/10/05 12:29:52;;;;;;;;;;;24.00;65.90;;;;;;5031599;28;42981;-79
2023/10/05 12:32:18;;;;;;;;;;;23.80;65.70;;;;;;5031724;28;42970;-79
2023/10/05 12:34:47;;;;;;;;;;;24.10;66.10;;;;;;5028190;28;43068;-80
2023/10/05 12:37:17;;;;;;;;;;;23.90;66.10;;;;;;5037273;28;43731;-80
2023/10/05 12:39:43;;;;;;;;;;;24.00;65.90;;;;;;5062249;28;42915;-79
2023/10/05 12:42:10;;;;;;;;;;;23.90;66.10;;;;;;5060932;28;42807;-79
2023/10/05 12:44:36;;;;;;;;;;;24.00;65.60;;;;;;5040359;28;44098;-80
2023/10/05 12:47:05;;;;;;;;;;;24.00;66.00;;;;;;5049350;28;43500;-79
2023/10/05 12:49:33;;;;;;;;;;;23.90;66.10;;;;;;5047262;28;42983;-80
2023/10/05 12:51:59;;;;;;;;;;;24.10;65.60;;;;;;5046010;28;42977;-79
2023/10/05 12:54:34;;;;;;;;;;;24.10;66.20;;;;;;5027688;28;43109;-80
2023/10/05 12:57:09;;;;;;;;;;;24.00;65.50;;;;;;5061045;28;42913;-80
2023/10/05 12:59:34;;;;;;;;;;;24.00;66.00;;;;;;5007486;28;43190;-79
2023/10/05 13:02:07;;;;;;;;;;;24.00;65.50;;;;;;5020009;28;42903;-79
2023/10/05 13:04:32;;;;;;;;;;;24.00;66.00;;;;;;5045017;28;43166;-79
2023/10/05 13:06:58;;;;;;;;;;;23.80;65.80;;;;;;5032898;28;43586;-80
2023/10/05 13:09:23;;;;;;;;;;;24.00;65.80;;;;;;5035335;28;42952;-79
2023/10/05 13:11:49;;;;;;;;;;;23.90;65.90;;;;;;5039780;28;43562;-79
2023/10/05 13:14:15;;;;;;;;;;;23.80;65.60;;;;;;5037340;28;42961;-79
2023/10/05 13:16:41;;;;;;;;;;;24.00;65.90;;;;;;5031824;28;43444;-79
2023/10/05 13:19:09;;;;;;;;;;;23.90;66.10;;;;;;5044653;28;42758;-79
2023/10/05 13:21:36;;;;;;;;;;;23.80;66.00;;;;;;4996150;28;43243;-79
2023/10/05 13:24:03;;;;;;;;;;;23.70;66.50;;;;;;5015303;28;43265;-79
2023/10/05 13:26:29;;;;;;;;;;;23.90;66.70;;;;;;5031802;28;43062;-79
2023/10/05 13:28:59;;;;;;;;;;;24.00;66.70;;;;;;5040534;28;42980;-79
2023/10/05 13:31:25;;;;;;;;;;;24.00;66.50;;;;;;5017754;28;44561;-80
2023/10/05 13:33:54;;;;;;;;;;;24.00;66.40;;;;;;5034028;28;43120;-79
2023/10/05 13:36:20;;;;;;;;;;;24.00;66.70;;;;;;5033707;28;42873;-79
2023/10/05 13:38:46;;;;;;;;;;;24.00;66.50;;;;;;5042297;28;43057;-79
2023/10/05 13:41:15;;;;;;;;;;;24.10;66.90;;;;;;5005968;28;45237;-79
2023/10/05 13:43:41;;;;;;;;;;;24.00;65.60;;;;;;5025460;28;43001;-78
2023/10/05 13:48:39;;;;;;;;;;;24.20;66.80;;;;;;5034155;28;43004;-79
2023/10/05 13:51:18;;;;;;;;;;;24.00;67.50;;;;;;5036769;28;43122;-78
2023/10/05 13:53:53;;;;;;;;;;;24.00;66.90;;;;;;5034387;28;43103;-78
2023/10/05 13:56:21;;;;;;;;;;;23.90;64.50;;;;;;5032058;28;43566;-78
2023/10/05 13:58:48;;;;;;;;;;;23.90;66.30;;;;;;5040685;28;43027;-78
2023/10/05 14:01:17;;;;;;;;;;;24.10;66.20;;;;;;5039478;28;43756;-78
2023/10/05 14:03:45;;;;;;;;;;;24.10;64.80;;;;;;5029892;28;43085;-79
2023/10/05 14:06:11;;;;;;;;;;;23.60;66.10;;;;;;5027199;28;44120;-78
2023/10/05 14:08:36;;;;;;;;;;;24.10;66.20;;;;;;5026175;28;43118;-78
2023/10/05 14:11:02;;;;;;;;;;;24.00;66.20;;;;;;5031832;28;43498;-78
2023/10/05 14:13:30;;;;;;;;;;;24.00;65.60;;;;;;5036760;28;42928;-79
2023/10/05 14:16:00;;;;;;;;;;;23.90;66.10;;;;;;5036779;28;43627;-79
2023/10/05 14:18:27;;;;;;;;;;;23.90;66.00;;;;;;5025629;28;43015;-78
2023/10/05 14:20:52;;;;;;;;;;;24.00;66.20;;;;;;5035617;28;43419;-79
2023/10/05 14:23:18;;;;;;;;;;;24.00;66.10;;;;;;5026709;28;42904;-78
2023/10/05 14:25:44;;;;;;;;;;;24.00;66.20;;;;;;5024636;28;42967;-79
2023/10/05 14:28:14;;;;;;;;;;;24.00;66.20;;;;;;5037456;28;42844;-79
2023/10/05 14:30:43;;;;;;;;;;;24.00;65.80;;;;;;5038899;28;43479;-79
2023/10/05 14:33:16;;;;;;;;;;;24.10;66.10;;;;;;5039465;28;43675;-79
2023/10/05 14:35:41;;;;;;;;;;;24.00;66.10;;;;;;5041104;28;43080;-78
2023/10/05 14:38:10;;;;;;;;;;;24.10;66.30;;;;;;5037853;28;42989;-78
2023/10/05 14:40:39;;;;;;;;;;;24.30;66.30;;;;;;5041806;28;44562;-79
2023/10/05 14:43:05;;;;;;;;;;;24.10;63.60;;;;;;5034103;28;43164;-79
2023/10/05 14:45:33;;;;;;;;;;;24.60;66.40;;;;;;5028024;28;44351;-80
2023/10/05 14:48:04;;;;;;;;;;;24.10;63.80;;;;;;5025193;28;43320;-79